YWAN weather

CLOSED Wallan Airport
Victoria, Australia

Public forecast

Using degrees Celsius for public forecast. Weather courtesy of forecast.io.

METAR (pilot weather report)

Closest report is Melbourne International Airport, 16.0 nm (29.6 km) SSW. Retrieved 2019/03/19 19:00 UTC (15 minutes ago):

YMML 191900Z 22005KT 5000 -DZ BR OVC002 19/18 Q1014 FM1900 21008KT 8000 -DZ BKN006 FM2030 22008KT 9999 -DZ FEW007 BKN012 TEMPO 1900/2100 3000 DZ BKN002 TEMPO 2100/2200 5000 DZ BKN008

TAF (pilot weather forecast)

Closest forecast is Melbourne International Airport, 16.0 nm (29.6 km) SSW. Retrieved 2019/03/19 18:00 UTC (1 hour ago):

TAF YMML 191710Z 1918/2024 21008KT 8000 -DZ BKN005 FM192000 22008KT 9999 -DZ FEW007 BKN012 FM192300 20008KT 9999 FEW010 BKN018 FM200200 21008KT 9999 SCT030 FM200900 21008KT 9999 FEW007 BKN010 FM201200 24007KT 9999 -DZ BKN006 FM202200 22007KT 9999 FEW008 BKN012 TEMPO 1918/1921 2000 DZ BKN002 TEMPO 1921/1924 5000 DZ BKN008 TEMPO 2009/2023 5000 -DZ BKN005